Axantha II — CQKN — position and weather

sailwx.info

Track history (hours):
 
Tides and Currents Weather Stations Pressure Air Temp Water Temp Dewpoint Dewpoint Depression Visibility Wind Speed Wind Dir Waves Ship Positions

Axantha II

Last reported at 2017-Aug-17 17:19 UTC. Time now 2017-Aug-19 15:02 UTC.
Position N 40°32' E 009°50'.

Length 43 m; draft 2.8 m.

Type: Pleasure craft. MMSI: 255804580.

Date/timePositionNaut miles runAvg speedWind from/ knotsBaromVisibWave heightAir tempDewpointWater temp
2017-Aug-17 17:19N 40°32' E 009°50'0 0.0
2017-Aug-17 16:58N 40°32' E 009°50'  
2017-Aug-08 21:35N 42°49' E 010°08'0 0.1
2017-Aug-08 21:29N 42°49' E 010°08'0 0.0
2017-Aug-08 16:05N 42°49' E 010°08'0 0.1
2017-Aug-08 15:59N 42°49' E 010°08'15 5.6
2017-Aug-08 13:22N 42°59' E 009°54'11 1.9
2017-Aug-08 07:30N 43°10' E 009°53'611.5
2017-Aug-08 07:00N 43°15' E 009°56'611.5
2017-Aug-08 06:30N 43°21' E 009°58'611.4
2017-Aug-08 06:00N 43°26' E 010°01'611.4
2017-Aug-08 05:30N 43°32' E 010°03'611.3
2017-Aug-08 04:57N 43°38' E 010°06'510.7
2017-Aug-08 04:30N 43°40' E 010°12'3 6.4
2017-Aug-08 04:00N 43°41' E 010°16'0 0.0
2017-Aug-08 03:30N 43°41' E 010°16'0 0.0
2017-Aug-08 03:00N 43°41' E 010°16'0 0.0
2017-Aug-08 02:30N 43°41' E 010°16'0 0.0
2017-Aug-08 02:00N 43°41' E 010°16'0 0.0
2017-Aug-08 01:30N 43°41' E 010°16'0 0.0
2017-Aug-08 01:00N 43°41' E 010°16'0 0.0
2017-Aug-08 00:30N 43°41' E 010°16'0 0.0
2017-Aug-08 00:00N 43°41' E 010°16'0 0.0
2017-Aug-07 23:30N 43°41' E 010°16'0 0.0
2017-Aug-07 22:57N 43°41' E 010°16'0 0.0
2017-Aug-07 22:15N 43°41' E 010°16'0 0.0
2017-Aug-07 22:00N 43°41' E 010°16'0 0.0
2017-Aug-07 21:30N 43°41' E 010°16'0 0.0
2017-Aug-07 20:57N 43°41' E 010°16'0 0.0
2017-Aug-07 20:30N 43°41' E 010°16'0 0.0
2017-Aug-07 20:00N 43°41' E 010°16'0 0.0
2017-Aug-07 19:30N 43°41' E 010°16'0 0.0
2017-Aug-07 19:00N 43°41' E 010°16'0 0.0
2017-Aug-07 18:30N 43°41' E 010°16'0 0.0
2017-Aug-07 18:00N 43°41' E 010°16'0 0.0
2017-Aug-07 17:24N 43°41' E 010°16'  
Track history (hours):
 
Tides and Currents Weather Stations Pressure Air Temp Water Temp Dewpoint Dewpoint Depression Visibility Wind Speed Wind Dir Waves Ship Positions

Axantha II

Last reported at 2017-Aug-17 17:19 UTC. Time now 2017-Aug-19 15:02 UTC.
Position N 40°32' E 009°50'.

Length 43 m; draft 2.8 m.

Type: Pleasure craft. MMSI: 255804580.

Date/timePositionNaut miles runAvg speedWind from/ knotsBaromVisibWave heightAir tempDewpointWater temp
2017-Aug-17 17:19N 40°32' E 009°50'0 0.0
2017-Aug-17 16:58N 40°32' E 009°50'  
2017-Aug-08 21:35N 42°49' E 010°08'0 0.1
2017-Aug-08 21:29N 42°49' E 010°08'0 0.0
2017-Aug-08 16:05N 42°49' E 010°08'0 0.1
2017-Aug-08 15:59N 42°49' E 010°08'15 5.6
2017-Aug-08 13:22N 42°59' E 009°54'11 1.9
2017-Aug-08 07:30N 43°10' E 009°53'611.5
2017-Aug-08 07:00N 43°15' E 009°56'611.5
2017-Aug-08 06:30N 43°21' E 009°58'611.4
2017-Aug-08 06:00N 43°26' E 010°01'611.4
2017-Aug-08 05:30N 43°32' E 010°03'611.3
2017-Aug-08 04:57N 43°38' E 010°06'510.7
2017-Aug-08 04:30N 43°40' E 010°12'3 6.4
2017-Aug-08 04:00N 43°41' E 010°16'0 0.0
2017-Aug-08 03:30N 43°41' E 010°16'0 0.0
2017-Aug-08 03:00N 43°41' E 010°16'0 0.0
2017-Aug-08 02:30N 43°41' E 010°16'0 0.0
2017-Aug-08 02:00N 43°41' E 010°16'0 0.0
2017-Aug-08 01:30N 43°41' E 010°16'0 0.0
2017-Aug-08 01:00N 43°41' E 010°16'0 0.0
2017-Aug-08 00:30N 43°41' E 010°16'0 0.0
2017-Aug-08 00:00N 43°41' E 010°16'0 0.0
2017-Aug-07 23:30N 43°41' E 010°16'0 0.0
2017-Aug-07 22:57N 43°41' E 010°16'0 0.0
2017-Aug-07 22:15N 43°41' E 010°16'0 0.0
2017-Aug-07 22:00N 43°41' E 010°16'0 0.0
2017-Aug-07 21:30N 43°41' E 010°16'0 0.0
2017-Aug-07 20:57N 43°41' E 010°16'0 0.0
2017-Aug-07 20:30N 43°41' E 010°16'0 0.0
2017-Aug-07 20:00N 43°41' E 010°16'0 0.0
2017-Aug-07 19:30N 43°41' E 010°16'0 0.0
2017-Aug-07 19:00N 43°41' E 010°16'0 0.0
2017-Aug-07 18:30N 43°41' E 010°16'0 0.0
2017-Aug-07 18:00N 43°41' E 010°16'0 0.0
2017-Aug-07 17:24N 43°41' E 010°16'  

Dump ship's entire track history